Terminal Aerodrome Forecast
Issued by NWS

Home | Current Version | Previous Version | Text Only | Print | Product List | Glossary On
Versions: 1 2 3 4 5 6 7 8 9 10 11 12 13 14 15
000
FTUS41 KPBZ 170700 AAA
TAFZZV
TAF AMD
KZZV 170756Z 1708/1806 00000KT P6SM BKN035
     FM170900 00000KT 5SM BR SCT002 BKN035
     FM171400 29005KT P6SM SCT050=

USA.gov is the U.S. government's official web portal to all federal, state and local government web resources and services.